This is the latest recevied weather packets stored in our database for station/object DC7RY. If no packets are shown the sender has not sent any weather packets the latest 10 day(s).
| Time | Temp. | Humidity | Pressure | Rain* | Wind** | Luminosity | Snow |
|---|---|---|---|---|---|---|---|
| 1777572618 | 15° C | 39% | 1020.7 hPa | 0 mm | - | 39 W/m² | - |
| 1777572026 | 15.56° C | 38% | 1020.5 hPa | 0 mm | - | 86 W/m² | - |
| 1777571417 | 15.56° C | 37% | 1020.4 hPa | 0 mm | - | 100 W/m² | - |
| 1777570825 | 16.11° C | 36% | 1020.6 hPa | 0 mm | - | 126 W/m² | - |
| 1777570217 | 16.11° C | 35% | 1020.4 hPa | 0 mm | - | 147 W/m² | - |
| 1777569625 | 16.67° C | 35% | 1020.4 hPa | 0 mm | - | 174 W/m² | - |
| 1777569017 | 17.22° C | 35% | 1020.4 hPa | 0 mm | - | 192 W/m² | - |
| 1777568422 | 17.22° C | 33% | 1020.3 hPa | 0 mm | - | 222 W/m² | - |
| 1777567830 | 17.22° C | 33% | 1020.3 hPa | 0 mm | - | 235 W/m² | - |
| 1777567221 | 17.78° C | 31% | 1020.4 hPa | 0 mm | - | 248 W/m² | - |
| 1777566629 | 17.78° C | 30% | 1020.4 hPa | 0 mm | - | 251 W/m² | - |
| 1777566021 | 17.78° C | 32% | 1020.5 hPa | 0 mm | - | 273 W/m² | - |
| 1777565429 | 17.78° C | 30% | 1020.5 hPa | 0 mm | - | 298 W/m² | - |
| 1777564821 | 17.78° C | 31% | 1020.5 hPa | 0 mm | - | 304 W/m² | - |
| 1777564229 | 17.78° C | 31% | 1020.5 hPa | 0 mm | - | 311 W/m² | - |
| 1777563621 | 17.78° C | 30% | 1020.4 hPa | 0 mm | - | 322 W/m² | - |
| 1777563029 | 17.78° C | 31% | 1020.5 hPa | 0 mm | - | 326 W/m² | - |
| 1777562421 | 17.78° C | 31% | 1020.5 hPa | 0 mm | - | 336 W/m² | - |
| 1777561829 | 17.78° C | 30% | 1020.6 hPa | 0 mm | - | 346 W/m² | - |
| 1777561221 | 17.78° C | 29% | 1020.7 hPa | 0 mm | - | 353 W/m² | - |
| 1777560629 | 17.78° C | 29% | 1020.7 hPa | 0 mm | - | 358 W/m² | - |
| 1777560021 | 18.33° C | 28% | 1021 hPa | 0 mm | - | 369 W/m² | - |
| 1777559429 | 18.33° C | 27% | 1021 hPa | 0 mm | - | 374 W/m² | - |
| 1777558821 | 18.33° C | 28% | 1021.1 hPa | 0 mm | - | 380 W/m² | - |
| 1777558229 | 17.78° C | 28% | 1021.2 hPa | 0 mm | - | 386 W/m² | - |
* Rain latest hour (hover to see other rain measurements)
** Current wind speed in m/s (hover to see current wind gust speed)